createdAt,value
2019-05-05T00:02:24.888Z,101102.06
2019-05-05T00:05:35.379Z,101112.06
2019-05-05T00:08:24.590Z,101112.38
2019-05-05T00:11:35.152Z,101113.23
2019-05-05T00:20:16.436Z,101128.23
2019-05-05T00:22:58.018Z,101112.31
2019-05-05T00:25:46.866Z,101118.89
2019-05-05T00:28:35.716Z,101121.53
2019-05-05T00:31:24.639Z,101119.19
2019-05-05T00:34:15.294Z,101121.86
2019-05-05T00:37:04.768Z,101132.94
2019-05-05T00:39:54.790Z,101136.13
2019-05-05T00:42:45.556Z,101138.45
2019-05-05T00:51:44.354Z,101148.83
2019-05-05T00:54:34.715Z,101148.88
2019-05-05T00:57:24.697Z,101156.27
2019-05-05T01:00:52.059Z,101153.62
2019-05-05T01:03:40.934Z,101157.73
2019-05-05T01:15:21.543Z,101159.67
2019-05-05T01:18:10.418Z,101159.02
2019-05-05T01:20:59.320Z,101156.91
2019-05-05T01:23:45.520Z,101163.38
2019-05-05T01:26:35.404Z,101164.72
2019-05-05T01:29:25.327Z,101159.45
2019-05-05T01:32:35.144Z,101162.70
2019-05-05T01:38:44.665Z,101169.86
2019-05-05T01:44:35.106Z,101167.72
2019-05-05T01:47:25.450Z,101163.50
2019-05-05T01:50:20.626Z,101161.80
2019-05-05T01:53:04.990Z,101166.63
2019-05-05T01:55:54.293Z,101167.00
2019-05-05T01:58:44.601Z,101169.71
2019-05-05T02:01:35.237Z,101167.48
2019-05-05T02:04:25.028Z,101170.45
2019-05-05T02:07:14.733Z,101173.20
2019-05-05T02:13:19.148Z,101170.45
2019-05-05T02:16:08.052Z,101169.71
2019-05-05T02:18:56.937Z,101171.98
2019-05-05T02:21:45.790Z,101171.61
2019-05-05T02:24:27.979Z,101169.61
2019-05-05T02:30:31.893Z,101168.94
2019-05-05T02:36:30.280Z,101176.06
2019-05-05T02:39:19.189Z,101177.83
2019-05-05T02:42:08.179Z,101175.19
2019-05-05T02:55:08.282Z,101193.30
2019-05-05T03:01:44.756Z,101188.48
2019-05-05T03:04:33.748Z,101186.51
2019-05-05T03:10:37.653Z,101194.69
2019-05-05T03:13:26.683Z,101187.88
2019-05-05T03:16:54.277Z,101196.66
2019-05-05T03:19:44.451Z,101193.95
2019-05-05T03:22:26.655Z,101184.27
2019-05-05T03:25:15.553Z,101189.13
2019-05-05T03:31:19.179Z,101195.92
2019-05-05T03:34:08.046Z,101194.73
2019-05-05T03:36:57.011Z,101205.95
2019-05-05T03:43:34.233Z,101197.40
2019-05-05T03:46:23.823Z,101213.22
2019-05-05T03:49:14.204Z,101212.75
2019-05-05T03:55:34.469Z,101211.39
2019-05-05T03:58:24.100Z,101222.77
2019-05-05T04:04:49.786Z,101222.05
2019-05-05T04:11:07.016Z,101220.96
2019-05-05T04:13:55.911Z,101222.57
2019-05-05T04:20:03.814Z,101218.37
2019-05-05T04:22:54.292Z,101223.08
2019-05-05T04:25:43.921Z,101224.48
2019-05-05T04:28:34.590Z,101216.74
2019-05-05T04:31:24.619Z,101212.09
2019-05-05T04:34:13.581Z,101227.06
2019-05-05T04:37:04.123Z,101233.97
2019-05-05T04:39:53.752Z,101234.77
2019-05-05T04:42:44.211Z,101239.16
2019-05-05T04:45:34.805Z,101247.33
2019-05-05T04:57:15.546Z,101268.77
2019-05-05T05:03:38.907Z,101271.23
2019-05-05T05:09:37.180Z,101270.56
2019-05-05T05:12:26.031Z,101273.02
2019-05-05T05:15:15.155Z,101284.84
2019-05-05T05:18:24.025Z,101277.01
2019-05-05T05:21:14.516Z,101287.55
2019-05-05T05:23:57.742Z,101284.58
2019-05-05T05:26:46.554Z,101293.23
2019-05-05T05:29:35.393Z,101289.29
2019-05-05T05:32:24.825Z,101295.92
2019-05-05T05:35:14.837Z,101286.34
2019-05-05T05:38:04.666Z,101293.81
2019-05-05T05:46:49.557Z,101299.99
2019-05-05T05:49:57.397Z,101298.70
2019-05-05T05:52:46.238Z,101300.97
2019-05-05T05:55:35.062Z,101305.49
2019-05-05T05:58:24.495Z,101308.70
2019-05-05T06:01:14.809Z,101306.60
2019-05-05T06:04:05.004Z,101316.94
2019-05-05T06:06:54.401Z,101322.50
2019-05-05T06:09:44.396Z,101317.03
2019-05-05T06:12:33.742Z,101321.31
2019-05-05T06:15:24.484Z,101327.61
2019-05-05T06:18:14.485Z,101329.55
2019-05-05T06:21:04.486Z,101333.47
2019-05-05T06:23:47.202Z,101321.06
2019-05-05T06:26:36.024Z,101329.20
2019-05-05T06:29:24.860Z,101326.22
2019-05-05T06:32:14.550Z,101319.75
2019-05-05T06:38:19.787Z,101334.84
2019-05-05T06:41:27.783Z,101335.23
2019-05-05T06:44:35.665Z,101345.48
2019-05-05T06:50:34.521Z,101338.68
2019-05-05T06:53:24.528Z,101337.15
2019-05-05T06:56:14.601Z,101341.61
2019-05-05T06:59:04.462Z,101341.59
2019-05-05T07:01:53.663Z,101341.63
2019-05-05T07:04:44.561Z,101340.46
2019-05-05T07:07:34.461Z,101344.00
2019-05-05T07:10:24.476Z,101350.20
2019-05-05T07:13:14.086Z,101344.05
2019-05-05T07:16:04.927Z,101348.13
2019-05-05T07:18:55.073Z,101347.83
2019-05-05T07:21:43.974Z,101349.31
2019-05-05T07:24:26.250Z,101350.94
2019-05-05T07:27:15.154Z,101357.80
2019-05-05T07:30:24.879Z,101362.97
2019-05-05T07:33:14.871Z,101363.33
2019-05-05T07:36:24.947Z,101352.84
2019-05-05T07:39:14.439Z,101364.67
2019-05-05T07:42:04.615Z,101367.18
2019-05-05T07:44:54.729Z,101368.61
2019-05-05T07:47:47.180Z,101365.26
2019-05-05T07:50:35.830Z,101362.54
2019-05-05T07:53:14.545Z,101357.31
2019-05-05T07:55:37.077Z,101353.88
2019-05-05T07:58:25.920Z,101356.16
2019-05-05T08:01:14.946Z,101357.27
2019-05-05T08:04:04.556Z,101353.88
2019-05-05T08:06:54.336Z,101356.61
2019-05-05T08:09:44.513Z,101353.08
2019-05-05T08:12:34.263Z,101347.32
2019-05-05T08:18:39.108Z,101345.32
2019-05-05T08:21:28.028Z,101345.31
2019-05-05T08:24:11.553Z,101346.75
2019-05-05T08:30:19.190Z,101347.83
2019-05-05T08:33:08.114Z,101343.30
2019-05-05T08:35:56.969Z,101345.55
2019-05-05T08:38:46.046Z,101345.52
2019-05-05T08:41:34.883Z,101340.88
2019-05-05T08:44:23.776Z,101338.30
2019-05-05T08:47:13.925Z,101339.00
2019-05-05T08:53:44.037Z,101335.41
2019-05-05T08:56:23.792Z,101327.97
2019-05-05T08:59:14.315Z,101332.20
2019-05-05T09:02:04.509Z,101334.91
2019-05-05T09:08:24.094Z,101337.57
2019-05-05T09:11:13.989Z,101321.53
2019-05-05T09:14:04.129Z,101314.11
2019-05-05T09:16:53.984Z,101319.03
2019-05-05T09:19:44.829Z,101313.38
2019-05-05T09:22:34.824Z,101323.27
2019-05-05T09:31:31.978Z,101342.77
2019-05-05T09:34:20.847Z,101355.17
2019-05-05T09:37:09.738Z,101349.93
2019-05-05T09:39:58.675Z,101351.89
2019-05-05T09:42:47.507Z,101347.68
2019-05-05T09:48:51.569Z,101347.39
2019-05-05T09:51:40.421Z,101356.03
2019-05-05T09:54:29.307Z,101345.79
2019-05-05T09:57:18.290Z,101339.23
2019-05-05T10:03:22.146Z,101329.95
2019-05-05T10:06:11.060Z,101330.40
2019-05-05T10:08:59.900Z,101333.30
2019-05-05T10:11:48.790Z,101328.30
2019-05-05T10:14:37.649Z,101348.92
2019-05-05T10:17:26.531Z,101354.65
2019-05-05T10:20:15.466Z,101356.13
2019-05-05T10:23:04.346Z,101361.24
2019-05-05T10:25:48.214Z,101371.47
2019-05-05T10:28:37.120Z,101374.08
2019-05-05T10:31:26.026Z,101385.93
2019-05-05T10:34:33.908Z,101382.73
2019-05-05T10:37:23.540Z,101384.76
2019-05-05T10:43:23.803Z,101398.05
2019-05-05T10:46:14.361Z,101400.80
2019-05-05T10:49:04.082Z,101393.05
2019-05-05T10:51:54.375Z,101391.57
2019-05-05T10:54:44.921Z,101391.08
2019-05-05T10:57:34.189Z,101394.03
2019-05-05T11:03:44.623Z,101375.14
2019-05-05T11:06:34.185Z,101359.98
2019-05-05T11:09:24.368Z,101354.41
2019-05-05T11:12:14.396Z,101345.70
2019-05-05T11:15:25.275Z,101350.09
2019-05-05T11:18:14.971Z,101341.29
2019-05-05T11:21:04.899Z,101345.26
2019-05-05T11:23:54.040Z,101341.17
2019-05-05T11:26:39.554Z,101334.35
2019-05-05T11:29:28.412Z,101333.34
2019-05-05T11:35:45.794Z,101329.19
2019-05-05T11:38:34.606Z,101330.40
2019-05-05T11:41:24.272Z,101338.00
2019-05-05T11:44:15.197Z,101327.77
2019-05-05T11:47:04.634Z,101328.60
2019-05-05T11:49:56.576Z,101325.64
2019-05-05T11:52:44.454Z,101325.15
2019-05-05T11:55:34.626Z,101324.08
2019-05-05T12:01:38.466Z,101325.59
2019-05-05T12:04:27.311Z,101331.16
2019-05-05T12:07:16.147Z,101329.66
2019-05-05T12:10:25.667Z,101324.02
2019-05-05T12:13:14.842Z,101329.95
2019-05-05T12:22:00.896Z,101348.56
2019-05-05T12:34:08.898Z,101351.55
2019-05-05T12:36:57.765Z,101348.89
2019-05-05T12:39:46.678Z,101337.88
2019-05-05T12:42:35.627Z,101342.53
2019-05-05T12:51:29.667Z,101352.15
2019-05-05T12:54:18.567Z,101344.55
2019-05-05T12:57:07.463Z,101343.70
2019-05-05T12:59:56.320Z,101339.33
2019-05-05T13:02:45.262Z,101338.05
2019-05-05T13:05:34.196Z,101337.28
2019-05-05T13:08:23.510Z,101336.25
2019-05-05T13:11:13.723Z,101346.67
2019-05-05T13:14:03.690Z,101356.22
2019-05-05T13:16:55.956Z,101367.42
2019-05-05T13:20:02.732Z,101362.32
2019-05-05T13:23:10.665Z,101364.98
2019-05-05T13:25:56.786Z,101364.02
2019-05-05T13:28:43.764Z,101367.72
2019-05-05T13:31:33.961Z,101363.41
2019-05-05T13:34:22.836Z,101358.63
2019-05-05T13:37:13.965Z,101348.59
2019-05-05T13:40:04.255Z,101348.78
2019-05-05T13:42:54.724Z,101342.36
2019-05-05T13:46:04.052Z,101350.00
2019-05-05T13:48:53.911Z,101341.54
2019-05-05T13:51:44.811Z,101343.45
2019-05-05T13:54:34.129Z,101347.38
2019-05-05T13:57:24.573Z,101347.03
2019-05-05T14:03:41.920Z,101342.48
2019-05-05T14:06:30.800Z,101335.66
2019-05-05T14:09:19.797Z,101337.03
2019-05-05T14:12:08.718Z,101327.48
2019-05-05T14:14:57.556Z,101329.97
2019-05-05T14:17:46.577Z,101332.80
2019-05-05T14:20:35.412Z,101325.63
2019-05-05T14:29:51.515Z,101330.81
2019-05-05T14:36:08.883Z,101325.37
2019-05-05T14:41:54.009Z,101325.88
2019-05-05T14:44:44.115Z,101327.89
2019-05-05T14:47:33.626Z,101332.97
2019-05-05T14:50:24.219Z,101338.41
2019-05-05T14:53:14.495Z,101331.19
2019-05-05T14:56:04.804Z,101335.70
2019-05-05T14:58:54.307Z,101333.70
2019-05-05T15:01:44.877Z,101333.55
2019-05-05T15:08:03.462Z,101338.11
2019-05-05T15:11:11.417Z,101327.30
2019-05-05T15:14:00.285Z,101329.23
2019-05-05T15:16:49.273Z,101321.02
2019-05-05T15:19:38.242Z,101322.50
2019-05-05T15:22:27.269Z,101319.15
2019-05-05T15:25:16.188Z,101322.22
2019-05-05T15:27:58.441Z,101319.37
2019-05-05T15:30:47.342Z,101311.41
2019-05-05T15:33:36.173Z,101312.27
2019-05-05T15:36:25.173Z,101309.05
2019-05-05T15:39:14.014Z,101305.41
2019-05-05T15:42:04.621Z,101308.92
2019-05-05T15:44:54.411Z,101308.05
2019-05-05T15:47:44.099Z,101307.29
2019-05-05T15:53:48.060Z,101317.75
2019-05-05T15:56:36.961Z,101311.05
2019-05-05T15:59:25.900Z,101315.93
2019-05-05T16:02:14.760Z,101321.56
2019-05-05T16:08:18.990Z,101328.20
2019-05-05T16:11:07.799Z,101327.60
2019-05-05T16:13:56.670Z,101324.89
2019-05-05T16:16:45.286Z,101331.93
2019-05-05T16:22:49.458Z,101328.94
2019-05-05T16:25:38.260Z,101331.13
2019-05-05T16:28:19.998Z,101329.66
2019-05-05T16:31:08.844Z,101330.59
2019-05-05T16:33:57.675Z,101332.13
2019-05-05T16:36:46.532Z,101331.38
2019-05-05T16:39:35.373Z,101331.47
2019-05-05T16:42:24.325Z,101327.55
2019-05-05T16:48:43.780Z,101337.52
2019-05-05T17:03:23.977Z,101344.25
2019-05-05T17:06:14.529Z,101352.33
2019-05-05T17:09:04.583Z,101349.20
2019-05-05T17:12:14.072Z,101348.17
2019-05-05T17:18:37.239Z,101354.32
2019-05-05T17:21:45.129Z,101354.58
2019-05-05T17:24:34.448Z,101354.23
2019-05-05T17:27:24.701Z,101357.70
2019-05-05T17:30:06.584Z,101355.87
2019-05-05T17:32:55.461Z,101360.13
2019-05-05T17:35:44.360Z,101351.62
2019-05-05T17:38:34.099Z,101355.59
2019-05-05T17:41:44.496Z,101353.13
2019-05-05T17:44:52.373Z,101357.34
2019-05-05T17:51:15.043Z,101349.31
2019-05-05T17:54:24.199Z,101355.90
2019-05-05T17:57:14.268Z,101357.48
2019-05-05T18:03:21.276Z,101355.84
2019-05-05T18:06:29.166Z,101358.69
2019-05-05T18:09:37.029Z,101356.31
2019-05-05T18:15:40.500Z,101354.55
2019-05-05T18:18:29.338Z,101356.84
2019-05-05T18:21:18.170Z,101360.22
2019-05-05T18:24:07.036Z,101360.58
2019-05-05T18:26:55.896Z,101365.20
2019-05-05T18:29:37.260Z,101369.36
2019-05-05T18:32:26.155Z,101362.61
2019-05-05T18:35:15.091Z,101373.94
2019-05-05T18:38:04.110Z,101370.58
2019-05-05T18:44:09.302Z,101378.56
2019-05-05T18:47:18.533Z,101381.12
2019-05-05T18:50:08.330Z,101378.52
2019-05-05T18:52:57.265Z,101383.08
2019-05-05T18:55:46.119Z,101391.27
2019-05-05T19:01:49.770Z,101391.41
2019-05-05T19:04:38.315Z,101398.38
2019-05-05T19:07:55.181Z,101399.87
2019-05-05T19:13:13.650Z,101405.11
2019-05-05T19:16:03.560Z,101408.84
2019-05-05T19:18:55.582Z,101408.09
2019-05-05T19:24:44.205Z,101422.19
2019-05-05T19:27:33.622Z,101422.72
2019-05-05T19:30:25.648Z,101424.91
2019-05-05T19:33:15.539Z,101420.95
2019-05-05T19:36:05.078Z,101423.16
2019-05-05T19:38:54.833Z,101429.73
2019-05-05T19:41:47.000Z,101427.64
2019-05-05T19:44:35.086Z,101439.50
2019-05-05T19:47:24.600Z,101446.33
2019-05-05T19:53:35.545Z,101447.65
2019-05-05T19:56:24.357Z,101447.65
2019-05-05T19:59:13.829Z,101454.59
2019-05-05T20:02:03.979Z,101454.16
2019-05-05T20:04:53.673Z,101455.73
2019-05-05T20:07:55.360Z,101456.20
2019-05-05T20:10:44.422Z,101456.47
2019-05-05T20:13:14.359Z,101459.08
2019-05-05T20:16:23.598Z,101459.08
2019-05-05T20:19:13.601Z,101457.61
2019-05-05T20:22:03.131Z,101459.61
2019-05-05T20:24:52.038Z,101457.11
2019-05-05T20:27:40.936Z,101453.43
2019-05-05T20:30:24.584Z,101457.27
2019-05-05T20:33:33.781Z,101462.71
2019-05-05T20:39:18.813Z,101464.60
2019-05-05T20:48:18.943Z,101470.22
2019-05-05T20:51:07.807Z,101465.84
2019-05-05T20:53:56.630Z,101467.87
2019-05-05T20:56:45.447Z,101463.48
2019-05-05T20:59:34.450Z,101467.97
2019-05-05T21:02:24.354Z,101465.20
2019-05-05T21:05:14.574Z,101469.85
2019-05-05T21:08:05.038Z,101472.84
2019-05-05T21:10:55.239Z,101464.36
2019-05-05T21:13:45.096Z,101472.21
2019-05-05T21:16:34.677Z,101474.56
2019-05-05T21:19:24.783Z,101473.31
2019-05-05T21:22:33.944Z,101474.27
2019-05-05T21:28:19.565Z,101475.67
2019-05-05T21:31:01.262Z,101472.95
2019-05-05T21:33:50.108Z,101475.75
2019-05-05T21:36:38.939Z,101475.53
2019-05-05T21:39:27.779Z,101479.44
2019-05-05T21:42:16.720Z,101480.59
2019-05-05T21:45:26.492Z,101482.42
2019-05-05T21:48:15.399Z,101484.31
2019-05-05T21:51:23.963Z,101485.69
2019-05-05T21:54:31.900Z,101488.64
2019-05-05T21:57:39.782Z,101488.37
2019-05-05T22:00:47.681Z,101484.98
2019-05-05T22:06:33.677Z,101497.84
2019-05-05T22:09:24.258Z,101491.49
2019-05-05T22:12:13.579Z,101491.06
2019-05-05T22:18:32.410Z,101495.31
2019-05-05T22:24:30.637Z,101494.55
2019-05-05T22:27:19.458Z,101488.58
2019-05-05T22:30:09.410Z,101498.31
2019-05-05T22:32:51.439Z,101493.42
2019-05-05T22:35:40.282Z,101493.67
2019-05-05T22:38:29.112Z,101490.16
2019-05-05T22:41:18.433Z,101497.84
2019-05-05T22:47:35.544Z,101498.19
2019-05-05T22:50:24.834Z,101500.39
2019-05-05T22:53:16.227Z,101508.53
2019-05-05T22:56:05.538Z,101505.06
2019-05-05T22:58:54.770Z,101507.09
2019-05-05T23:01:45.001Z,101506.92
2019-05-05T23:04:54.528Z,101506.04
2019-05-05T23:07:43.898Z,101502.99
2019-05-05T23:10:34.371Z,101498.26
2019-05-05T23:13:23.194Z,101508.70
2019-05-05T23:19:07.991Z,101511.01
2019-05-05T23:22:15.833Z,101514.56
2019-05-05T23:28:20.481Z,101516.02
2019-05-05T23:31:02.337Z,101520.56
2019-05-05T23:33:51.172Z,101515.59
2019-05-05T23:36:40.024Z,101515.59
2019-05-05T23:39:28.839Z,101515.41
2019-05-05T23:42:17.683Z,101519.04
2019-05-05T23:48:34.938Z,101517.51
2019-05-05T23:51:24.250Z,101518.39
2019-05-05T23:54:14.341Z,101520.08
2019-05-05T23:57:04.710Z,101516.99
2019-05-05T23:59:53.848Z,101519.34
